createdAt,value
2018-07-02T00:00:38.508Z,20.44
2018-07-02T00:01:45.290Z,20.42
2018-07-02T00:02:52.159Z,20.40
2018-07-02T00:03:58.934Z,20.38
2018-07-02T00:05:05.787Z,20.38
2018-07-02T00:06:12.823Z,20.37
2018-07-02T00:07:19.820Z,20.35
2018-07-02T00:08:26.645Z,20.33
2018-07-02T00:09:33.429Z,20.32
2018-07-02T00:10:40.192Z,20.31
2018-07-02T00:11:46.942Z,20.28
2018-07-02T00:12:53.686Z,20.28
2018-07-02T00:14:00.480Z,20.27
2018-07-02T00:15:07.230Z,20.25
2018-07-02T00:16:13.966Z,20.25
2018-07-02T00:17:20.690Z,20.22
2018-07-02T00:18:27.476Z,20.20
2018-07-02T00:19:34.242Z,20.18
2018-07-02T00:20:41.074Z,20.18
2018-07-02T00:21:47.914Z,20.16
2018-07-02T00:22:54.810Z,20.16
2018-07-02T00:24:01.699Z,20.13
2018-07-02T00:25:08.510Z,20.14
2018-07-02T00:26:15.321Z,20.12
2018-07-02T00:27:22.102Z,20.11
2018-07-02T00:28:28.912Z,20.08
2018-07-02T00:29:35.703Z,20.09
2018-07-02T00:30:42.540Z,20.06
2018-07-02T00:31:49.375Z,20.07
2018-07-02T00:32:56.350Z,20.05
2018-07-02T00:34:03.102Z,20.04
2018-07-02T00:35:10.008Z,20.02
2018-07-02T00:36:16.819Z,20.00
2018-07-02T00:37:23.578Z,19.99
2018-07-02T00:38:30.379Z,19.98
2018-07-02T00:39:37.157Z,19.98
2018-07-02T00:40:43.942Z,19.97
2018-07-02T00:41:50.770Z,19.94
2018-07-02T00:42:57.623Z,19.94
2018-07-02T00:44:04.533Z,19.93
2018-07-02T00:45:11.375Z,19.91
2018-07-02T00:46:18.290Z,19.91
2018-07-02T00:47:25.387Z,19.89
2018-07-02T00:48:32.234Z,19.89
2018-07-02T00:49:39.182Z,19.87
2018-07-02T00:50:45.946Z,19.88
2018-07-02T00:51:52.792Z,19.85
2018-07-02T00:52:59.600Z,19.86
2018-07-02T00:54:06.336Z,19.85
2018-07-02T00:55:13.135Z,19.83
2018-07-02T00:56:19.966Z,19.83
2018-07-02T00:57:27.145Z,19.81
2018-07-02T00:58:34.015Z,19.79
2018-07-02T00:59:40.854Z,19.78
2018-07-02T01:00:47.602Z,19.78
2018-07-02T01:01:54.409Z,19.77
2018-07-02T01:03:01.455Z,19.76
2018-07-02T01:04:08.377Z,19.76
2018-07-02T01:05:15.138Z,19.74
2018-07-02T01:06:21.910Z,19.73
2018-07-02T01:07:28.792Z,19.71
2018-07-02T01:08:35.590Z,19.72
2018-07-02T01:09:42.331Z,19.70
2018-07-02T01:10:49.081Z,19.70
2018-07-02T01:11:55.882Z,19.69
2018-07-02T01:13:02.613Z,19.68
2018-07-02T01:14:09.689Z,19.66
2018-07-02T01:15:16.460Z,19.65
2018-07-02T01:16:23.292Z,19.64
2018-07-02T01:17:30.074Z,19.64
2018-07-02T01:18:36.858Z,19.62
2018-07-02T01:19:43.667Z,19.61
2018-07-02T01:20:50.454Z,19.60
2018-07-02T01:21:57.207Z,19.59
2018-07-02T01:23:04.013Z,19.58
2018-07-02T01:24:10.782Z,19.57
2018-07-02T01:25:17.610Z,19.56
2018-07-02T01:26:24.394Z,19.56
2018-07-02T01:27:31.176Z,19.53
2018-07-02T01:28:37.940Z,19.53
2018-07-02T01:29:44.758Z,19.53
2018-07-02T01:30:51.534Z,19.52
2018-07-02T01:31:58.298Z,19.51
2018-07-02T01:33:05.119Z,19.50
2018-07-02T01:34:11.885Z,19.49
2018-07-02T01:35:18.622Z,19.48
2018-07-02T01:36:25.384Z,19.47
2018-07-02T01:37:32.138Z,19.45
2018-07-02T01:38:38.850Z,19.44
2018-07-02T01:39:45.586Z,19.43
2018-07-02T01:40:52.314Z,19.44
2018-07-02T01:41:59.165Z,19.42
2018-07-02T01:43:05.967Z,19.41
2018-07-02T01:44:12.731Z,19.40
2018-07-02T01:45:19.552Z,19.38
2018-07-02T01:46:26.339Z,19.38
2018-07-02T01:47:33.091Z,19.36
2018-07-02T01:48:39.946Z,19.36
2018-07-02T01:49:46.719Z,19.34
2018-07-02T01:50:53.522Z,19.32
2018-07-02T01:52:00.358Z,19.32
2018-07-02T01:53:07.187Z,19.31
2018-07-02T01:54:14.082Z,19.31
2018-07-02T01:55:20.867Z,19.30
2018-07-02T01:56:27.715Z,19.29
2018-07-02T01:57:34.586Z,19.28
2018-07-02T01:58:41.334Z,19.28
2018-07-02T01:59:48.055Z,19.27
2018-07-02T02:00:54.906Z,19.25
2018-07-02T02:02:01.734Z,19.25
2018-07-02T02:03:08.643Z,19.24
2018-07-02T02:04:15.390Z,19.24
2018-07-02T02:05:22.151Z,19.23
2018-07-02T02:06:29.038Z,19.22
2018-07-02T02:07:35.973Z,19.20
2018-07-02T02:08:43.022Z,19.19
2018-07-02T02:09:49.895Z,19.19
2018-07-02T02:10:56.742Z,19.18
2018-07-02T02:12:03.487Z,19.18
2018-07-02T02:13:10.341Z,19.16
2018-07-02T02:14:17.076Z,19.17
2018-07-02T02:15:23.827Z,19.15
2018-07-02T02:16:30.605Z,19.13
2018-07-02T02:17:37.418Z,19.13
2018-07-02T02:18:44.222Z,19.13
2018-07-02T02:19:51.078Z,19.11
2018-07-02T02:20:57.815Z,19.11
2018-07-02T02:22:04.614Z,19.09
2018-07-02T02:23:11.475Z,19.09
2018-07-02T02:24:18.247Z,19.08
2018-07-02T02:25:30.209Z,19.06
2018-07-02T02:26:31.990Z,19.06
2018-07-02T02:27:38.736Z,19.06
2018-07-02T02:28:45.557Z,19.04
2018-07-02T02:29:52.346Z,19.05
2018-07-02T02:30:59.111Z,19.02
2018-07-02T02:32:05.884Z,19.01
2018-07-02T02:33:12.663Z,19.01
2018-07-02T02:34:19.505Z,19.01
2018-07-02T02:35:26.275Z,18.99
2018-07-02T02:36:33.110Z,18.97
2018-07-02T02:37:39.947Z,18.98
2018-07-02T02:38:46.794Z,18.97
2018-07-02T02:39:53.568Z,18.95
2018-07-02T02:41:00.318Z,18.96
2018-07-02T02:42:07.151Z,18.94
2018-07-02T02:43:13.949Z,18.94
2018-07-02T02:44:20.800Z,18.93
2018-07-02T02:45:27.552Z,18.93
2018-07-02T02:46:34.335Z,18.91
2018-07-02T02:47:41.102Z,18.91
2018-07-02T02:48:47.923Z,18.91
2018-07-02T02:49:54.663Z,18.89
2018-07-02T02:51:01.443Z,18.88
2018-07-02T02:52:08.280Z,18.88
2018-07-02T02:53:15.076Z,18.88
2018-07-02T02:54:22.064Z,18.85
2018-07-02T02:55:28.882Z,18.84
2018-07-02T02:56:35.706Z,18.84
2018-07-02T02:57:42.646Z,18.84
2018-07-02T02:58:49.391Z,18.83
2018-07-02T02:59:56.526Z,18.81
2018-07-02T03:01:03.311Z,18.81
2018-07-02T03:02:10.071Z,18.81
2018-07-02T03:03:16.805Z,18.79
2018-07-02T03:04:23.602Z,18.78
2018-07-02T03:05:30.481Z,18.78
2018-07-02T03:06:37.249Z,18.76
2018-07-02T03:07:44.085Z,18.76
2018-07-02T03:08:50.847Z,18.75
2018-07-02T03:09:57.615Z,18.75
2018-07-02T03:11:04.506Z,18.73
2018-07-02T03:12:11.306Z,18.73
2018-07-02T03:13:18.159Z,18.73
2018-07-02T03:14:25.008Z,18.72
2018-07-02T03:15:31.854Z,18.70
2018-07-02T03:16:38.684Z,18.70
2018-07-02T03:17:45.495Z,18.68
2018-07-02T03:18:52.434Z,18.68
2018-07-02T03:19:59.228Z,18.67
2018-07-02T03:21:06.139Z,18.67
2018-07-02T03:22:13.148Z,18.67
2018-07-02T03:23:19.990Z,18.65
2018-07-02T03:24:26.774Z,18.66
2018-07-02T03:25:33.598Z,18.65
2018-07-02T03:26:40.388Z,18.62
2018-07-02T03:27:47.279Z,18.62
2018-07-02T03:28:53.999Z,18.62
2018-07-02T03:30:00.839Z,18.60
2018-07-02T03:31:07.905Z,18.60
2018-07-02T03:32:14.909Z,18.60
2018-07-02T03:33:21.662Z,18.60
2018-07-02T03:34:28.449Z,18.60
2018-07-02T03:35:35.259Z,18.58
2018-07-02T03:36:42.088Z,18.58
2018-07-02T03:37:48.959Z,18.58
2018-07-02T03:38:55.862Z,18.57
2018-07-02T03:40:02.758Z,18.56
2018-07-02T03:41:09.597Z,18.54
2018-07-02T03:42:16.362Z,18.54
2018-07-02T03:43:23.148Z,18.53
2018-07-02T03:44:29.982Z,18.53
2018-07-02T03:45:36.771Z,18.52
2018-07-02T03:46:43.534Z,18.51
2018-07-02T03:47:50.359Z,18.52
2018-07-02T03:48:57.127Z,18.50
2018-07-02T03:50:03.926Z,18.50
2018-07-02T03:51:10.770Z,18.49
2018-07-02T03:52:17.516Z,18.48
2018-07-02T03:53:24.275Z,18.46
2018-07-02T03:54:31.154Z,18.47
2018-07-02T03:55:37.910Z,18.45
2018-07-02T03:56:44.786Z,18.46
2018-07-02T03:57:51.582Z,18.44
2018-07-02T03:58:58.319Z,18.44
2018-07-02T04:00:05.346Z,18.42
2018-07-02T04:01:11.935Z,18.42
2018-07-02T04:02:18.695Z,18.41
2018-07-02T04:03:25.455Z,18.41
2018-07-02T04:04:32.291Z,18.39
2018-07-02T04:05:39.075Z,18.40
2018-07-02T04:06:45.933Z,18.38
2018-07-02T04:07:52.807Z,18.38
2018-07-02T04:08:59.522Z,18.37
2018-07-02T04:10:06.307Z,18.35
2018-07-02T04:11:13.035Z,18.36
2018-07-02T04:12:19.840Z,18.35
2018-07-02T04:13:26.641Z,18.34
2018-07-02T04:14:33.460Z,18.32
2018-07-02T04:15:40.235Z,18.33
2018-07-02T04:16:47.046Z,18.32
2018-07-02T04:17:53.797Z,18.32
2018-07-02T04:19:00.630Z,18.30
2018-07-02T04:20:07.543Z,18.30
2018-07-02T04:21:14.418Z,18.29
2018-07-02T04:22:21.282Z,18.29
2018-07-02T04:23:28.075Z,18.28
2018-07-02T04:24:34.870Z,18.26
2018-07-02T04:25:41.698Z,18.27
2018-07-02T04:26:48.450Z,18.27
2018-07-02T04:27:55.198Z,18.25
2018-07-02T04:29:01.998Z,18.24
2018-07-02T04:30:09.015Z,18.24
2018-07-02T04:31:15.763Z,18.24
2018-07-02T04:32:22.494Z,18.24
2018-07-02T04:33:29.295Z,18.24
2018-07-02T04:34:36.055Z,18.21
2018-07-02T04:35:42.790Z,18.22
2018-07-02T04:36:49.601Z,18.21
2018-07-02T04:37:56.371Z,18.21
2018-07-02T04:39:03.444Z,18.22
2018-07-02T04:40:09.850Z,18.22
2018-07-02T04:41:16.614Z,18.21
2018-07-02T04:42:23.414Z,18.20
2018-07-02T04:43:30.210Z,18.19
2018-07-02T04:44:36.962Z,18.21
2018-07-02T04:45:43.678Z,18.18
2018-07-02T04:46:50.427Z,18.18
2018-07-02T04:47:57.218Z,18.17
2018-07-02T04:49:04.231Z,18.17
2018-07-02T04:50:10.986Z,18.16
2018-07-02T04:51:17.797Z,18.16
2018-07-02T04:52:24.707Z,18.15
2018-07-02T04:53:31.479Z,18.15
2018-07-02T04:54:38.263Z,18.14
2018-07-02T04:55:45.092Z,18.14
2018-07-02T04:56:51.871Z,18.14
2018-07-02T04:57:58.637Z,18.14
2018-07-02T04:59:05.481Z,18.13
2018-07-02T05:00:12.259Z,18.13
2018-07-02T05:01:19.023Z,18.12
2018-07-02T05:02:25.851Z,18.13
2018-07-02T05:03:32.780Z,18.12
2018-07-02T05:04:39.578Z,18.11
2018-07-02T05:05:46.305Z,18.11
2018-07-02T05:06:53.090Z,18.11
2018-07-02T05:07:59.863Z,18.10
2018-07-02T05:09:06.656Z,18.11
2018-07-02T05:10:13.362Z,18.09
2018-07-02T05:11:20.135Z,18.10
2018-07-02T05:12:26.854Z,18.09
2018-07-02T05:13:33.643Z,18.08
2018-07-02T05:14:40.427Z,18.09
2018-07-02T05:15:47.406Z,18.09
2018-07-02T05:16:54.177Z,18.09
2018-07-02T05:18:00.943Z,18.08
2018-07-02T05:19:07.863Z,18.08
2018-07-02T05:20:14.587Z,18.08
2018-07-02T05:21:21.336Z,18.08
2018-07-02T05:22:28.433Z,18.09
2018-07-02T05:23:35.254Z,18.09
2018-07-02T05:24:41.998Z,18.08
2018-07-02T05:25:48.785Z,18.08
2018-07-02T05:26:55.492Z,18.10
2018-07-02T05:28:02.471Z,18.09
2018-07-02T05:29:09.229Z,18.09
2018-07-02T05:30:16.040Z,18.09
2018-07-02T05:31:22.793Z,18.09
2018-07-02T05:32:29.650Z,18.08
2018-07-02T05:33:36.407Z,18.08
2018-07-02T05:34:43.189Z,18.09
2018-07-02T05:35:49.921Z,18.09
2018-07-02T05:36:56.751Z,18.09
2018-07-02T05:38:03.490Z,18.09
2018-07-02T05:39:10.318Z,18.11
2018-07-02T05:40:17.270Z,18.10
2018-07-02T05:41:24.003Z,18.08
2018-07-02T05:42:30.775Z,18.10
2018-07-02T05:43:37.503Z,18.11
2018-07-02T05:44:44.294Z,18.10
2018-07-02T05:45:51.045Z,18.09
2018-07-02T05:46:57.730Z,18.11
2018-07-02T05:48:04.498Z,18.10
2018-07-02T05:49:11.231Z,18.12
2018-07-02T05:50:17.974Z,18.13
2018-07-02T05:51:24.711Z,18.12
2018-07-02T05:52:31.514Z,18.12
2018-07-02T05:53:38.214Z,18.12
2018-07-02T05:54:44.951Z,18.13
2018-07-02T05:55:52.082Z,18.13
2018-07-02T05:56:58.586Z,18.13
2018-07-02T05:58:05.343Z,18.13
2018-07-02T05:59:12.054Z,18.13
2018-07-02T06:00:18.826Z,18.13
2018-07-02T06:01:25.573Z,18.13
2018-07-02T06:02:32.276Z,18.14
2018-07-02T06:03:39.291Z,18.14
2018-07-02T06:04:46.019Z,18.15
2018-07-02T06:05:52.782Z,18.14
2018-07-02T06:06:59.533Z,18.15
2018-07-02T06:08:06.360Z,18.15
2018-07-02T06:09:13.104Z,18.14
2018-07-02T06:10:19.898Z,18.16
2018-07-02T06:11:26.755Z,18.15
2018-07-02T06:12:33.590Z,18.16
2018-07-02T06:13:40.471Z,18.17
2018-07-02T06:14:47.215Z,18.16
2018-07-02T06:15:53.994Z,18.17
2018-07-02T06:17:00.831Z,18.18
2018-07-02T06:18:07.650Z,18.18
2018-07-02T06:19:14.583Z,18.17
2018-07-02T06:20:21.370Z,18.19
2018-07-02T06:21:28.177Z,18.19
2018-07-02T06:22:34.996Z,18.19
2018-07-02T06:23:41.771Z,18.20
2018-07-02T06:24:48.523Z,18.21
2018-07-02T06:25:55.239Z,18.22
2018-07-02T06:27:02.041Z,18.23
2018-07-02T06:28:08.909Z,18.24
2018-07-02T06:29:16.032Z,18.23
2018-07-02T06:30:22.884Z,18.25
2018-07-02T06:31:29.662Z,18.24
2018-07-02T06:32:36.398Z,18.25
2018-07-02T06:33:43.078Z,18.26
2018-07-02T06:34:49.854Z,18.26
2018-07-02T06:35:56.567Z,18.28
2018-07-02T06:37:04.964Z,18.27
2018-07-02T06:38:10.322Z,18.29
2018-07-02T06:39:17.128Z,18.29
2018-07-02T06:40:23.818Z,18.29
2018-07-02T06:41:30.526Z,18.30
2018-07-02T06:42:37.280Z,18.30
2018-07-02T06:43:44.084Z,18.32
2018-07-02T06:44:50.866Z,18.32
2018-07-02T06:45:57.651Z,18.32
2018-07-02T06:47:04.450Z,18.33
2018-07-02T06:48:11.197Z,18.35
2018-07-02T06:49:18.322Z,18.35
2018-07-02T06:50:25.176Z,18.36
2018-07-02T06:51:32.275Z,18.38
2018-07-02T06:52:39.147Z,18.39
2018-07-02T06:53:46.162Z,18.40
2018-07-02T06:54:52.958Z,18.40
2018-07-02T06:56:00.839Z,18.42
2018-07-02T06:57:06.602Z,18.42
2018-07-02T06:58:13.327Z,18.44
2018-07-02T06:59:20.036Z,18.44
2018-07-02T07:00:26.862Z,18.47
2018-07-02T07:01:33.818Z,18.48
2018-07-02T07:02:40.664Z,18.48
2018-07-02T07:03:47.422Z,18.48
2018-07-02T07:04:54.702Z,18.50
2018-07-02T07:06:01.068Z,18.51
2018-07-02T07:07:07.963Z,18.53
2018-07-02T07:08:15.376Z,18.53
2018-07-02T07:09:21.823Z,18.55
2018-07-02T07:10:29.086Z,18.55
2018-07-02T07:11:35.645Z,18.56
2018-07-02T07:12:42.452Z,18.57
2018-07-02T07:13:49.311Z,18.59
2018-07-02T07:14:56.091Z,18.59
2018-07-02T07:16:03.148Z,18.60
2018-07-02T07:17:09.958Z,18.62
2018-07-02T07:18:16.903Z,18.64
2018-07-02T07:19:23.706Z,18.64
2018-07-02T07:20:30.713Z,18.66
2018-07-02T07:21:37.548Z,18.66
2018-07-02T07:22:44.415Z,18.68
2018-07-02T07:23:51.140Z,18.69
2018-07-02T07:24:57.914Z,18.71
2018-07-02T07:26:04.827Z,18.73
2018-07-02T07:27:12.100Z,18.73
2018-07-02T07:28:18.570Z,18.73
2018-07-02T07:29:27.365Z,18.76
2018-07-02T07:30:32.247Z,18.77
2018-07-02T07:31:39.123Z,18.78
2018-07-02T07:32:46.565Z,18.81
2018-07-02T07:33:53.051Z,18.81
2018-07-02T07:34:59.996Z,18.84
2018-07-02T07:36:06.892Z,18.85
2018-07-02T07:37:16.693Z,18.86
2018-07-02T07:38:23.647Z,18.86
2018-07-02T07:39:30.715Z,18.89
2018-07-02T07:40:37.980Z,18.91
2018-07-02T07:41:44.520Z,18.92
2018-07-02T07:42:51.891Z,18.93
2018-07-02T07:43:59.467Z,18.94
2018-07-02T07:45:05.196Z,18.96
2018-07-02T07:46:12.388Z,18.98
2018-07-02T07:47:22.643Z,18.99
2018-07-02T07:48:27.223Z,19.00
2018-07-02T07:49:33.951Z,19.02
2018-07-02T07:50:40.691Z,19.05
2018-07-02T07:52:54.738Z,19.06
2018-07-02T07:54:00.827Z,19.08
2018-07-02T07:55:09.160Z,19.09
2018-07-02T07:56:14.472Z,19.11
2018-07-02T07:57:21.294Z,19.12
2018-07-02T07:58:31.694Z,19.13
2018-07-02T07:59:35.383Z,19.15
2018-07-02T08:00:43.737Z,19.15
2018-07-02T08:01:48.907Z,19.19
2018-07-02T08:02:55.695Z,19.20
2018-07-02T08:04:02.876Z,19.24
2018-07-02T08:05:09.869Z,19.24
2018-07-02T08:06:16.647Z,19.26
2018-07-02T08:07:24.369Z,19.27
2018-07-02T08:08:31.290Z,19.28
2018-07-02T08:09:37.068Z,19.30
2018-07-02T08:10:43.965Z,19.32
2018-07-02T08:11:50.843Z,19.32
2018-07-02T08:12:57.604Z,19.33
2018-07-02T08:14:04.364Z,19.37
2018-07-02T08:15:11.847Z,19.38
2018-07-02T08:16:18.168Z,19.38
2018-07-02T08:17:25.140Z,19.40
2018-07-02T08:18:32.980Z,19.43
2018-07-02T08:19:39.003Z,19.43
2018-07-02T08:20:45.822Z,19.45
2018-07-02T08:22:01.204Z,19.45
2018-07-02T08:22:59.550Z,19.48
2018-07-02T08:24:06.707Z,19.49
2018-07-02T08:25:14.707Z,19.51
2018-07-02T08:26:21.268Z,19.53
2018-07-02T08:27:30.763Z,19.55
2018-07-02T08:28:35.291Z,19.55
2018-07-02T08:29:41.580Z,19.59
2018-07-02T08:30:48.220Z,19.60
2018-07-02T08:31:56.235Z,19.61
2018-07-02T08:33:02.119Z,19.62
2018-07-02T08:34:09.385Z,19.64
2018-07-02T08:35:17.072Z,19.65
2018-07-02T08:36:23.326Z,19.67
2018-07-02T08:37:31.532Z,19.70
2018-07-02T08:38:36.913Z,19.71
2018-07-02T08:39:43.707Z,19.72
2018-07-02T08:40:52.267Z,19.73
2018-07-02T08:41:57.646Z,19.75
2018-07-02T08:43:07.282Z,19.77
2018-07-02T08:46:36.013Z,19.79
2018-07-02T08:47:42.959Z,19.84
2018-07-02T08:48:50.786Z,19.85
2018-07-02T08:49:59.595Z,19.87
2018-07-02T08:51:04.865Z,19.88
2018-07-02T08:52:10.733Z,19.90
2018-07-02T08:53:19.792Z,19.91
2018-07-02T08:54:24.712Z,19.92
2018-07-02T08:55:31.453Z,19.95
2018-07-02T08:56:41.232Z,19.96
2018-07-02T09:01:46.791Z,19.98
2018-07-02T09:02:53.690Z,20.06
2018-07-02T09:04:00.507Z,20.07
2018-07-02T09:05:07.972Z,20.10
2018-07-02T09:06:17.648Z,20.10
2018-07-02T09:07:27.113Z,20.13
2018-07-02T09:08:33.572Z,20.14
2018-07-02T09:09:35.657Z,20.16
2018-07-02T09:11:50.488Z,20.20
2018-07-02T09:12:56.406Z,20.23
2018-07-02T09:14:03.260Z,20.23
2018-07-02T09:15:10.236Z,20.25
2018-07-02T09:16:17.671Z,20.27
2018-07-02T09:17:24.258Z,20.29
2018-07-02T09:18:30.812Z,20.31
2018-07-02T09:19:37.905Z,20.33
2018-07-02T09:20:50.204Z,20.35
2018-07-02T09:21:51.899Z,20.37
2018-07-02T09:22:58.886Z,20.40
2018-07-02T09:24:05.504Z,20.43
2018-07-02T09:25:12.747Z,20.43
2018-07-02T09:26:19.332Z,20.44
2018-07-02T09:27:26.163Z,20.46
2018-07-02T09:28:34.767Z,20.48
2018-07-02T09:29:39.736Z,20.51
2018-07-02T09:31:53.944Z,20.54
2018-07-02T09:33:00.352Z,20.55
2018-07-02T09:34:11.481Z,20.58
2018-07-02T09:35:13.982Z,20.59
2018-07-02T09:36:23.220Z,20.61
2018-07-02T09:37:27.631Z,20.64
2018-07-02T09:38:34.704Z,20.64
2018-07-02T09:39:41.206Z,20.69
2018-07-02T09:40:48.092Z,20.70
2018-07-02T09:41:56.604Z,20.71
2018-07-02T09:43:06.741Z,20.72
2018-07-02T09:44:10.031Z,20.74
2018-07-02T09:45:15.814Z,20.75
2018-07-02T09:46:22.656Z,20.78
2018-07-02T09:47:29.559Z,20.80
2018-07-02T09:48:36.575Z,20.82
2018-07-02T09:49:44.959Z,20.84
2018-07-02T09:50:50.297Z,20.86
2018-07-02T09:51:57.674Z,20.87
2018-07-02T09:53:07.828Z,20.90
2018-07-02T09:54:11.627Z,20.91
2018-07-02T09:55:18.483Z,20.92
2018-07-02T09:56:30.150Z,20.94
2018-07-02T09:57:32.271Z,20.96
2018-07-02T09:58:39.491Z,20.98
2018-07-02T09:59:50.235Z,21.01
2018-07-02T10:00:53.111Z,21.01
2018-07-02T10:01:59.992Z,21.03
2018-07-02T10:03:06.765Z,21.06
2018-07-02T10:04:13.768Z,21.07
2018-07-02T10:05:20.634Z,21.08
2018-07-02T10:06:28.996Z,21.10
2018-07-02T10:08:44.760Z,21.16
2018-07-02T10:09:51.468Z,21.17
2018-07-02T10:10:58.212Z,21.21
2018-07-02T10:12:06.892Z,21.21
2018-07-02T10:13:11.698Z,21.24
2018-07-02T10:14:18.491Z,21.25
2018-07-02T10:15:25.342Z,21.27
2018-07-02T10:16:32.457Z,21.29
2018-07-02T10:17:40.023Z,21.31
2018-07-02T10:18:45.875Z,21.34
2018-07-02T10:19:53.195Z,21.36
2018-07-02T10:21:01.131Z,21.38
2018-07-02T10:22:07.515Z,21.39
2018-07-02T10:23:13.642Z,21.41
2018-07-02T10:24:20.685Z,21.43
2018-07-02T10:25:28.448Z,21.46
2018-07-02T10:26:34.278Z,21.48
2018-07-02T10:27:41.073Z,21.49
2018-07-02T10:28:47.906Z,21.51
2018-07-02T10:29:54.991Z,21.52
2018-07-02T10:31:01.976Z,21.55
2018-07-02T10:32:08.792Z,21.57
2018-07-02T10:33:15.505Z,21.59
2018-07-02T10:34:22.377Z,21.61
2018-07-02T10:35:30.934Z,21.63
2018-07-02T10:36:36.370Z,21.67
2018-07-02T10:37:44.433Z,21.68
2018-07-02T10:38:50.514Z,21.70
2018-07-02T10:39:58.447Z,21.72
2018-07-02T10:41:04.156Z,21.74
2018-07-02T10:42:16.141Z,21.77
2018-07-02T10:43:18.017Z,21.79
2018-07-02T10:44:25.544Z,21.80
2018-07-02T10:45:31.842Z,21.83
2018-07-02T10:46:39.609Z,21.82
2018-07-02T10:47:45.673Z,21.87
2018-07-02T10:48:56.056Z,21.88
2018-07-02T10:50:02.264Z,21.90
2018-07-02T10:51:06.659Z,21.93
2018-07-02T10:52:13.539Z,21.94
2018-07-02T10:54:28.550Z,21.97
2018-07-02T10:55:35.806Z,22.00
2018-07-02T10:56:41.339Z,22.02
2018-07-02T10:57:48.339Z,22.04
2018-07-02T10:58:57.050Z,22.05
2018-07-02T11:00:02.008Z,22.07
2018-07-02T11:01:09.719Z,22.10
2018-07-02T11:02:16.190Z,22.12
2018-07-02T11:03:23.198Z,22.13
2018-07-02T11:04:30.712Z,22.16
2018-07-02T11:05:37.188Z,22.18
2018-07-02T11:06:45.652Z,22.20
2018-07-02T11:07:51.145Z,22.23
2018-07-02T11:08:58.518Z,22.23
2018-07-02T11:10:05.111Z,22.26
2018-07-02T11:11:11.579Z,22.27
2018-07-02T11:12:18.452Z,22.28
2018-07-02T11:13:27.493Z,22.30
2018-07-02T11:15:39.519Z,22.34
2018-07-02T11:16:47.634Z,22.36
2018-07-02T11:17:58.096Z,22.36
2018-07-02T11:19:00.411Z,22.39
2018-07-02T11:20:08.689Z,22.42
2018-07-02T11:21:13.949Z,22.43
2018-07-02T11:22:21.798Z,22.44
2018-07-02T11:23:49.427Z,22.47
2018-07-02T11:24:56.931Z,22.50
2018-07-02T11:26:04.589Z,22.52
2018-07-02T11:27:10.429Z,22.53
2018-07-02T11:28:23.541Z,22.56
2018-07-02T11:30:31.121Z,22.59
2018-07-02T11:31:38.588Z,22.63
2018-07-02T11:32:45.043Z,22.64
2018-07-02T11:33:51.887Z,22.66
2018-07-02T11:35:04.022Z,22.67
2018-07-02T11:36:16.786Z,22.69
2018-07-02T11:37:19.462Z,22.72
2018-07-02T11:38:25.477Z,22.74
2018-07-02T11:39:38.548Z,22.75
2018-07-02T11:40:39.235Z,22.78
2018-07-02T11:41:46.079Z,22.79
2018-07-02T11:42:52.891Z,22.80
2018-07-02T11:43:59.761Z,22.82
2018-07-02T11:45:06.487Z,22.86
2018-07-02T11:46:13.246Z,22.86
2018-07-02T11:47:20.045Z,22.90
2018-07-02T11:48:26.922Z,22.89
2018-07-02T11:49:33.738Z,22.91
2018-07-02T11:50:42.530Z,22.93
2018-07-02T11:51:49.727Z,22.95
2018-07-02T11:52:54.135Z,22.96
2018-07-02T11:54:01.272Z,22.97
2018-07-02T11:55:14.460Z,22.99
2018-07-02T11:57:22.136Z,23.04
2018-07-02T11:58:29.081Z,23.03
2018-07-02T11:59:36.137Z,23.05
2018-07-02T12:00:49.226Z,23.07
2018-07-02T12:30:51.745Z,23.11
2018-07-02T12:31:59.955Z,23.54
2018-07-02T12:33:05.740Z,23.57
2018-07-02T12:34:17.477Z,23.58
2018-07-02T12:37:17.857Z,23.60
2018-07-02T12:38:24.755Z,23.66
2018-07-02T12:39:32.408Z,23.67
2018-07-02T12:40:38.308Z,23.68
2018-07-02T12:44:17.973Z,23.73
2018-07-02T12:45:52.959Z,23.74
2018-07-02T12:46:52.373Z,23.76
2018-07-02T12:47:57.452Z,23.78
2018-07-02T12:49:04.148Z,23.80
2018-07-02T12:50:11.051Z,23.82
2018-07-02T12:51:17.933Z,23.83
2018-07-02T12:52:24.884Z,23.85
2018-07-02T12:53:31.656Z,23.86
2018-07-02T12:54:38.455Z,23.87
2018-07-02T12:55:45.348Z,23.88
2018-07-02T12:56:52.358Z,23.90
2018-07-02T12:57:59.226Z,23.92
2018-07-02T12:59:06.023Z,23.92
2018-07-02T13:00:12.924Z,23.93
2018-07-02T13:01:19.695Z,23.94
2018-07-02T13:02:26.495Z,23.96
2018-07-02T13:05:47.064Z,23.99
2018-07-02T13:06:53.991Z,24.01
2018-07-02T13:08:00.829Z,24.03
2018-07-02T13:09:07.787Z,24.05
2018-07-02T13:10:18.903Z,24.06
2018-07-02T13:11:21.833Z,24.06
2018-07-02T13:12:28.700Z,24.08
2018-07-02T13:13:35.539Z,24.10
2018-07-02T13:14:42.390Z,24.11
2018-07-02T13:15:53.039Z,24.12
2018-07-02T13:16:55.887Z,24.13
2018-07-02T13:18:02.870Z,24.14
2018-07-02T13:19:09.818Z,24.17
2018-07-02T13:20:17.872Z,24.17
2018-07-02T13:21:30.262Z,24.20
2018-07-02T13:22:36.940Z,24.21
2018-07-02T13:23:43.695Z,24.22
2018-07-02T13:24:50.489Z,24.23
2018-07-02T13:25:57.519Z,24.25
2018-07-02T13:27:04.326Z,24.26
2018-07-02T13:28:11.297Z,24.29
2018-07-02T13:29:18.646Z,24.29
2018-07-02T13:30:25.218Z,24.31
2018-07-02T13:31:32.329Z,24.32
2018-07-02T13:32:39.257Z,24.33
2018-07-02T13:33:46.265Z,24.33
2018-07-02T13:34:53.018Z,24.35
2018-07-02T13:35:59.730Z,24.35
2018-07-02T13:37:06.802Z,24.37
2018-07-02T13:38:13.726Z,24.38
2018-07-02T13:39:20.549Z,24.38
2018-07-02T13:40:28.018Z,24.39
2018-07-02T13:41:34.734Z,24.39
2018-07-02T13:42:43.584Z,24.42
2018-07-02T13:43:48.244Z,24.42
2018-07-02T13:44:55.283Z,24.44
2018-07-02T13:46:01.696Z,24.44
2018-07-02T13:47:08.851Z,24.45
2018-07-02T13:48:15.845Z,24.47
2018-07-02T13:49:22.277Z,24.48
2018-07-02T13:50:32.499Z,24.51
2018-07-02T13:51:35.864Z,24.52
2018-07-02T13:52:43.688Z,24.52
2018-07-02T13:53:49.591Z,24.53
2018-07-02T13:54:56.391Z,24.55
2018-07-02T13:56:06.828Z,24.55
2018-07-02T13:57:17.356Z,24.56
2018-07-02T13:58:17.579Z,24.58
2018-07-02T13:59:24.661Z,24.58
2018-07-02T14:00:53.123Z,24.59
2018-07-02T14:02:00.166Z,24.62
2018-07-02T14:03:07.031Z,24.63
2018-07-02T14:04:13.943Z,24.64
2018-07-02T14:05:20.782Z,24.66
2018-07-02T14:06:27.586Z,24.67
2018-07-02T14:07:34.577Z,24.67
2018-07-02T14:08:41.176Z,24.68
2018-07-02T14:09:48.386Z,24.70
2018-07-02T14:10:54.768Z,24.69
2018-07-02T14:12:01.704Z,24.72
2018-07-02T14:13:08.703Z,24.72
2018-07-02T14:14:15.537Z,24.73
2018-07-02T14:15:22.359Z,24.74
2018-07-02T14:16:29.290Z,24.74
2018-07-02T14:17:36.131Z,24.77
2018-07-02T14:18:42.776Z,24.77
2018-07-02T14:19:49.875Z,24.78
2018-07-02T14:20:56.747Z,24.79
2018-07-02T14:22:04.648Z,24.80
2018-07-02T14:23:10.503Z,24.81
2018-07-02T14:24:17.299Z,24.82
2018-07-02T14:25:25.171Z,24.84
2018-07-02T14:26:31.106Z,24.85
2018-07-02T14:27:38.077Z,24.85
2018-07-02T14:28:44.892Z,24.86
2018-07-02T14:29:51.933Z,24.88
2018-07-02T14:30:58.783Z,24.89
2018-07-02T14:32:05.786Z,24.90
2018-07-02T14:33:12.632Z,24.91
2018-07-02T14:34:19.559Z,24.92
2018-07-02T14:35:26.340Z,24.93
2018-07-02T14:36:36.226Z,24.94
2018-07-02T14:37:42.614Z,24.95
2018-07-02T14:38:48.036Z,24.96
2018-07-02T14:39:53.893Z,24.97
2018-07-02T14:41:00.752Z,24.98
2018-07-02T14:42:12.740Z,25.00
2018-07-02T14:43:14.702Z,25.00
2018-07-02T14:44:21.623Z,25.01
2018-07-02T14:45:28.370Z,25.01
2018-07-02T14:46:35.289Z,25.04
2018-07-02T14:47:42.216Z,25.05
2018-07-02T14:48:49.272Z,25.06
2018-07-02T14:49:56.280Z,25.07
2018-07-02T14:51:03.297Z,25.08
2018-07-02T14:52:10.053Z,25.08
2018-07-02T14:53:16.919Z,25.09
2018-07-02T14:54:24.080Z,25.11
2018-07-02T14:55:31.813Z,25.11
2018-07-02T14:56:37.944Z,25.14
2018-07-02T14:57:46.601Z,25.14
2018-07-02T14:58:52.229Z,25.14
2018-07-02T14:59:58.814Z,25.15
2018-07-02T15:01:07.420Z,25.15
2018-07-02T15:02:12.582Z,25.16
2018-07-02T15:03:19.464Z,25.17
2018-07-02T15:04:27.602Z,25.17
2018-07-02T15:05:34.365Z,25.19
2018-07-02T15:06:40.527Z,25.19
2018-07-02T15:09:00.862Z,25.22
2018-07-02T15:10:05.903Z,25.22
2018-07-02T15:11:15.825Z,25.25
2018-07-02T15:12:19.955Z,25.24
2018-07-02T15:13:27.565Z,25.26
2018-07-02T15:14:33.851Z,25.25